Terminal Aerodrome Forecast
Issued by NWS

Home | Current Version | Previous Version | Text Only | Print | Product List | Glossary On
Versions: 1 2 3 4 5 6 7 8 9 10 11 12 13 14 15 16
500
FTPA31 PHFO 281359 AAB
TAFSTU
TAF AMD
NSTU 281359Z 2814/0112 VRB05KT P6SM VCTS SCT015CB BKN035 OVC090
      TEMPO 2814/2817 VRB12G20KT 3SM TSRA BR BKN015CB
     FM281700 11012KT P6SM VCSH SCT018 BKN040 BKN100=

USA.gov is the U.S. government's official web portal to all federal, state and local government web resources and services.